sensor_id;sensor_type;location;lat;lon;timestamp;P1;durP1;ratioP1;P2;durP2;ratioP2
9508;SDS011;4792;50.088;8.122;2022-10-16T00:01:07;4.07;;;3.03;;
9508;SDS011;4792;50.088;8.122;2022-10-16T00:03:37;4.67;;;3.40;;
9508;SDS011;4792;50.088;8.122;2022-10-16T00:06:06;7.33;;;3.97;;
9508;SDS011;4792;50.088;8.122;2022-10-16T00:08:36;5.57;;;4.20;;
9508;SDS011;4792;50.088;8.122;2022-10-16T00:11:05;4.20;;;3.70;;
9508;SDS011;4792;50.088;8.122;2022-10-16T00:13:35;4.83;;;3.90;;
9508;SDS011;4792;50.088;8.122;2022-10-16T00:16:04;5.90;;;4.00;;
9508;SDS011;4792;50.088;8.122;2022-10-16T00:18:34;4.77;;;4.37;;
9508;SDS011;4792;50.088;8.122;2022-10-16T00:21:04;7.57;;;4.30;;
9508;SDS011;4792;50.088;8.122;2022-10-16T00:23:33;10.57;;;4.63;;
9508;SDS011;4792;50.088;8.122;2022-10-16T00:26:02;4.33;;;3.93;;
9508;SDS011;4792;50.088;8.122;2022-10-16T00:28:32;4.67;;;3.83;;
9508;SDS011;4792;50.088;8.122;2022-10-16T00:31:02;6.53;;;3.50;;
9508;SDS011;4792;50.088;8.122;2022-10-16T00:33:30;7.40;;;4.00;;
9508;SDS011;4792;50.088;8.122;2022-10-16T00:36:00;7.93;;;4.53;;
9508;SDS011;4792;50.088;8.122;2022-10-16T00:38:28;5.17;;;4.10;;
9508;SDS011;4792;50.088;8.122;2022-10-16T00:40:57;4.80;;;4.30;;
9508;SDS011;4792;50.088;8.122;2022-10-16T00:43:39;5.23;;;4.00;;
9508;SDS011;4792;50.088;8.122;2022-10-16T00:46:17;7.47;;;4.50;;
9508;SDS011;4792;50.088;8.122;2022-10-16T00:48:50;4.97;;;3.77;;
9508;SDS011;4792;50.088;8.122;2022-10-16T00:51:25;5.03;;;3.97;;
9508;SDS011;4792;50.088;8.122;2022-10-16T00:53:58;9.13;;;4.53;;
9508;SDS011;4792;50.088;8.122;2022-10-16T00:56:27;4.47;;;4.07;;
9508;SDS011;4792;50.088;8.122;2022-10-16T00:58:55;7.40;;;4.00;;
9508;SDS011;4792;50.088;8.122;2022-10-16T01:01:23;4.73;;;3.83;;
9508;SDS011;4792;50.088;8.122;2022-10-16T01:03:51;4.23;;;3.83;;
9508;SDS011;4792;50.088;8.122;2022-10-16T01:06:22;6.40;;;3.90;;
9508;SDS011;4792;50.088;8.122;2022-10-16T01:09:06;6.13;;;3.47;;
9508;SDS011;4792;50.088;8.122;2022-10-16T01:11:41;9.63;;;3.83;;
9508;SDS011;4792;50.088;8.122;2022-10-16T01:14:19;6.13;;;3.17;;
9508;SDS011;4792;50.088;8.122;2022-10-16T01:16:52;4.43;;;2.97;;
9508;SDS011;4792;50.088;8.122;2022-10-16T01:19:26;5.27;;;3.37;;
9508;SDS011;4792;50.088;8.122;2022-10-16T01:22:07;4.37;;;3.23;;
9508;SDS011;4792;50.088;8.122;2022-10-16T01:24:38;5.53;;;3.13;;
9508;SDS011;4792;50.088;8.122;2022-10-16T01:27:10;3.97;;;2.70;;
9508;SDS011;4792;50.088;8.122;2022-10-16T01:29:41;3.77;;;2.60;;
9508;SDS011;4792;50.088;8.122;2022-10-16T01:32:17;7.30;;;2.70;;
9508;SDS011;4792;50.088;8.122;2022-10-16T01:34:50;3.87;;;2.93;;
9508;SDS011;4792;50.088;8.122;2022-10-16T01:37:22;3.07;;;2.77;;
9508;SDS011;4792;50.088;8.122;2022-10-16T01:39:58;4.30;;;3.00;;
9508;SDS011;4792;50.088;8.122;2022-10-16T01:42:30;3.90;;;2.80;;
9508;SDS011;4792;50.088;8.122;2022-10-16T01:45:02;5.80;;;3.00;;
9508;SDS011;4792;50.088;8.122;2022-10-16T01:47:34;3.23;;;2.77;;
9508;SDS011;4792;50.088;8.122;2022-10-16T01:50:04;4.23;;;3.10;;
9508;SDS011;4792;50.088;8.122;2022-10-16T01:52:34;4.83;;;2.90;;
9508;SDS011;4792;50.088;8.122;2022-10-16T01:55:06;5.77;;;3.13;;
9508;SDS011;4792;50.088;8.122;2022-10-16T01:57:39;7.50;;;3.43;;
9508;SDS011;4792;50.088;8.122;2022-10-16T02:00:12;3.37;;;3.07;;
9508;SDS011;4792;50.088;8.122;2022-10-16T02:02:44;4.77;;;4.13;;
9508;SDS011;4792;50.088;8.122;2022-10-16T02:05:20;6.73;;;3.43;;
9508;SDS011;4792;50.088;8.122;2022-10-16T02:07:52;4.40;;;4.00;;
9508;SDS011;4792;50.088;8.122;2022-10-16T02:10:22;4.47;;;3.57;;
9508;SDS011;4792;50.088;8.122;2022-10-16T02:12:55;4.27;;;3.87;;
9508;SDS011;4792;50.088;8.122;2022-10-16T02:15:26;5.17;;;3.87;;
9508;SDS011;4792;50.088;8.122;2022-10-16T02:17:54;5.37;;;4.17;;
9508;SDS011;4792;50.088;8.122;2022-10-16T02:20:25;5.87;;;4.20;;
9508;SDS011;4792;50.088;8.122;2022-10-16T02:22:57;7.30;;;4.07;;
9508;SDS011;4792;50.088;8.122;2022-10-16T02:25:27;9.20;;;4.90;;
9508;SDS011;4792;50.088;8.122;2022-10-16T02:28:01;7.10;;;5.00;;
9508;SDS011;4792;50.088;8.122;2022-10-16T02:30:33;6.33;;;4.87;;
9508;SDS011;4792;50.088;8.122;2022-10-16T02:33:06;8.57;;;5.17;;
9508;SDS011;4792;50.088;8.122;2022-10-16T02:35:36;5.30;;;4.43;;
9508;SDS011;4792;50.088;8.122;2022-10-16T02:38:05;6.07;;;5.03;;
9508;SDS011;4792;50.088;8.122;2022-10-16T02:40:36;5.73;;;5.13;;
9508;SDS011;4792;50.088;8.122;2022-10-16T02:43:06;5.70;;;5.23;;
9508;SDS011;4792;50.088;8.122;2022-10-16T02:45:35;5.50;;;4.90;;
9508;SDS011;4792;50.088;8.122;2022-10-16T02:48:03;5.93;;;5.10;;
9508;SDS011;4792;50.088;8.122;2022-10-16T02:50:32;8.37;;;4.73;;
9508;SDS011;4792;50.088;8.122;2022-10-16T02:53:00;6.13;;;4.80;;
9508;SDS011;4792;50.088;8.122;2022-10-16T02:55:28;5.90;;;4.60;;
9508;SDS011;4792;50.088;8.122;2022-10-16T02:57:56;5.70;;;3.60;;
9508;SDS011;4792;50.088;8.122;2022-10-16T03:00:26;4.10;;;3.80;;
9508;SDS011;4792;50.088;8.122;2022-10-16T03:02:54;6.43;;;4.03;;
9508;SDS011;4792;50.088;8.122;2022-10-16T03:05:22;6.77;;;3.77;;
9508;SDS011;4792;50.088;8.122;2022-10-16T03:07:51;4.60;;;3.50;;
9508;SDS011;4792;50.088;8.122;2022-10-16T03:10:19;4.23;;;3.50;;
9508;SDS011;4792;50.088;8.122;2022-10-16T03:12:47;5.10;;;3.80;;
9508;SDS011;4792;50.088;8.122;2022-10-16T03:15:15;7.23;;;4.43;;
9508;SDS011;4792;50.088;8.122;2022-10-16T03:17:45;6.30;;;5.27;;
9508;SDS011;4792;50.088;8.122;2022-10-16T03:20:13;9.53;;;5.93;;
9508;SDS011;4792;50.088;8.122;2022-10-16T03:22:41;9.07;;;6.20;;
9508;SDS011;4792;50.088;8.122;2022-10-16T03:25:09;7.73;;;5.10;;
9508;SDS011;4792;50.088;8.122;2022-10-16T03:27:38;6.60;;;4.60;;
9508;SDS011;4792;50.088;8.122;2022-10-16T03:30:06;5.80;;;4.27;;
9508;SDS011;4792;50.088;8.122;2022-10-16T03:32:35;5.00;;;4.53;;
9508;SDS011;4792;50.088;8.122;2022-10-16T03:35:05;4.43;;;3.90;;
9508;SDS011;4792;50.088;8.122;2022-10-16T03:37:34;7.00;;;3.70;;
9508;SDS011;4792;50.088;8.122;2022-10-16T03:40:02;4.23;;;3.80;;
9508;SDS011;4792;50.088;8.122;2022-10-16T03:42:31;4.07;;;3.70;;
9508;SDS011;4792;50.088;8.122;2022-10-16T03:44:59;7.27;;;4.90;;
9508;SDS011;4792;50.088;8.122;2022-10-16T03:47:27;5.97;;;4.80;;
9508;SDS011;4792;50.088;8.122;2022-10-16T03:49:55;6.87;;;4.70;;
9508;SDS011;4792;50.088;8.122;2022-10-16T03:52:25;6.77;;;5.07;;
9508;SDS011;4792;50.088;8.122;2022-10-16T03:54:53;5.83;;;4.40;;
9508;SDS011;4792;50.088;8.122;2022-10-16T03:57:21;8.20;;;4.13;;
9508;SDS011;4792;50.088;8.122;2022-10-16T03:59:50;5.57;;;4.27;;
9508;SDS011;4792;50.088;8.122;2022-10-16T04:02:18;4.23;;;3.13;;
9508;SDS011;4792;50.088;8.122;2022-10-16T04:04:46;6.30;;;3.30;;
9508;SDS011;4792;50.088;8.122;2022-10-16T04:07:14;3.73;;;3.30;;
9508;SDS011;4792;50.088;8.122;2022-10-16T04:09:43;5.70;;;3.50;;
9508;SDS011;4792;50.088;8.122;2022-10-16T04:12:12;5.63;;;4.70;;
9508;SDS011;4792;50.088;8.122;2022-10-16T04:14:40;5.97;;;4.60;;
9508;SDS011;4792;50.088;8.122;2022-10-16T04:17:08;8.43;;;5.00;;
9508;SDS011;4792;50.088;8.122;2022-10-16T04:19:36;7.40;;;4.87;;
9508;SDS011;4792;50.088;8.122;2022-10-16T04:22:04;6.90;;;5.27;;
9508;SDS011;4792;50.088;8.122;2022-10-16T04:24:32;6.20;;;4.70;;
9508;SDS011;4792;50.088;8.122;2022-10-16T04:27:01;5.20;;;4.70;;
9508;SDS011;4792;50.088;8.122;2022-10-16T04:29:30;6.83;;;5.20;;
9508;SDS011;4792;50.088;8.122;2022-10-16T04:31:58;5.73;;;5.23;;
9508;SDS011;4792;50.088;8.122;2022-10-16T04:34:26;5.80;;;5.30;;
9508;SDS011;4792;50.088;8.122;2022-10-16T04:36:54;8.03;;;5.50;;
9508;SDS011;4792;50.088;8.122;2022-10-16T04:39:22;6.30;;;5.07;;
9508;SDS011;4792;50.088;8.122;2022-10-16T04:41:50;7.13;;;4.63;;
9508;SDS011;4792;50.088;8.122;2022-10-16T04:44:19;5.57;;;5.00;;
9508;SDS011;4792;50.088;8.122;2022-10-16T04:46:49;9.63;;;5.93;;
9508;SDS011;4792;50.088;8.122;2022-10-16T04:49:18;9.07;;;5.70;;
9508;SDS011;4792;50.088;8.122;2022-10-16T04:51:46;4.83;;;4.17;;
9508;SDS011;4792;50.088;8.122;2022-10-16T04:54:14;6.53;;;5.13;;
9508;SDS011;4792;50.088;8.122;2022-10-16T04:56:42;6.70;;;5.20;;
9508;SDS011;4792;50.088;8.122;2022-10-16T04:59:13;9.73;;;5.20;;
9508;SDS011;4792;50.088;8.122;2022-10-16T05:01:43;5.67;;;4.60;;
9508;SDS011;4792;50.088;8.122;2022-10-16T05:04:12;6.53;;;5.00;;
9508;SDS011;4792;50.088;8.122;2022-10-16T05:06:41;6.77;;;4.57;;
9508;SDS011;4792;50.088;8.122;2022-10-16T05:09:09;6.07;;;4.47;;
9508;SDS011;4792;50.088;8.122;2022-10-16T05:11:38;6.23;;;4.70;;
9508;SDS011;4792;50.088;8.122;2022-10-16T05:14:06;5.90;;;3.60;;
9508;SDS011;4792;50.088;8.122;2022-10-16T05:16:34;3.63;;;3.33;;
9508;SDS011;4792;50.088;8.122;2022-10-16T05:19:03;3.47;;;3.10;;
9508;SDS011;4792;50.088;8.122;2022-10-16T05:21:51;4.90;;;3.10;;
9508;SDS011;4792;50.088;8.122;2022-10-16T05:24:19;4.03;;;3.43;;
9508;SDS011;4792;50.088;8.122;2022-10-16T05:26:48;4.97;;;3.70;;
9508;SDS011;4792;50.088;8.122;2022-10-16T05:29:16;3.93;;;3.57;;
9508;SDS011;4792;50.088;8.122;2022-10-16T05:31:45;4.70;;;4.03;;
9508;SDS011;4792;50.088;8.122;2022-10-16T05:34:14;4.40;;;4.00;;
9508;SDS011;4792;50.088;8.122;2022-10-16T05:36:42;4.57;;;3.93;;
9508;SDS011;4792;50.088;8.122;2022-10-16T05:39:11;4.70;;;3.90;;
9508;SDS011;4792;50.088;8.122;2022-10-16T05:41:41;4.97;;;4.47;;
9508;SDS011;4792;50.088;8.122;2022-10-16T05:44:09;4.60;;;4.20;;
9508;SDS011;4792;50.088;8.122;2022-10-16T05:46:38;10.33;;;5.30;;
9508;SDS011;4792;50.088;8.122;2022-10-16T05:49:06;8.43;;;4.53;;
9508;SDS011;4792;50.088;8.122;2022-10-16T05:51:35;6.20;;;4.70;;
9508;SDS011;4792;50.088;8.122;2022-10-16T05:54:05;6.27;;;4.90;;
9508;SDS011;4792;50.088;8.122;2022-10-16T05:56:34;4.30;;;3.90;;
9508;SDS011;4792;50.088;8.122;2022-10-16T05:59:02;5.57;;;5.00;;
9508;SDS011;4792;50.088;8.122;2022-10-16T06:01:31;5.37;;;4.67;;
9508;SDS011;4792;50.088;8.122;2022-10-16T06:04:00;5.43;;;4.50;;
9508;SDS011;4792;50.088;8.122;2022-10-16T06:06:28;5.27;;;4.77;;
9508;SDS011;4792;50.088;8.122;2022-10-16T06:08:58;6.00;;;5.40;;
9508;SDS011;4792;50.088;8.122;2022-10-16T06:11:28;8.30;;;5.77;;
9508;SDS011;4792;50.088;8.122;2022-10-16T06:13:58;7.40;;;6.70;;
9508;SDS011;4792;50.088;8.122;2022-10-16T06:16:28;8.13;;;7.17;;
9508;SDS011;4792;50.088;8.122;2022-10-16T06:18:57;6.37;;;5.53;;
9508;SDS011;4792;50.088;8.122;2022-10-16T06:21:26;8.30;;;6.30;;
9508;SDS011;4792;50.088;8.122;2022-10-16T06:23:56;6.37;;;5.53;;
9508;SDS011;4792;50.088;8.122;2022-10-16T06:26:26;9.30;;;6.57;;
9508;SDS011;4792;50.088;8.122;2022-10-16T06:28:56;6.30;;;5.70;;
9508;SDS011;4792;50.088;8.122;2022-10-16T06:31:25;8.73;;;5.67;;
9508;SDS011;4792;50.088;8.122;2022-10-16T06:33:57;6.33;;;5.30;;
9508;SDS011;4792;50.088;8.122;2022-10-16T06:36:25;6.80;;;5.73;;
9508;SDS011;4792;50.088;8.122;2022-10-16T06:38:53;6.23;;;5.67;;
9508;SDS011;4792;50.088;8.122;2022-10-16T06:41:23;5.57;;;5.07;;
9508;SDS011;4792;50.088;8.122;2022-10-16T06:43:51;5.90;;;4.87;;
9508;SDS011;4792;50.088;8.122;2022-10-16T06:46:20;7.63;;;6.37;;
9508;SDS011;4792;50.088;8.122;2022-10-16T06:48:50;6.47;;;5.73;;
9508;SDS011;4792;50.088;8.122;2022-10-16T06:51:19;9.43;;;6.47;;
9508;SDS011;4792;50.088;8.122;2022-10-16T06:53:48;6.73;;;5.97;;
9508;SDS011;4792;50.088;8.122;2022-10-16T06:56:35;8.97;;;5.10;;
9508;SDS011;4792;50.088;8.122;2022-10-16T06:59:04;7.70;;;5.30;;
9508;SDS011;4792;50.088;8.122;2022-10-16T07:01:32;8.97;;;4.97;;
9508;SDS011;4792;50.088;8.122;2022-10-16T07:04:00;5.80;;;5.20;;
9508;SDS011;4792;50.088;8.122;2022-10-16T07:06:30;6.43;;;5.10;;
9508;SDS011;4792;50.088;8.122;2022-10-16T07:09:01;5.50;;;4.97;;
9508;SDS011;4792;50.088;8.122;2022-10-16T07:11:31;6.33;;;5.00;;
9508;SDS011;4792;50.088;8.122;2022-10-16T07:14:01;6.53;;;5.30;;
9508;SDS011;4792;50.088;8.122;2022-10-16T07:16:30;5.60;;;4.57;;
9508;SDS011;4792;50.088;8.122;2022-10-16T07:18:59;5.00;;;4.50;;
9508;SDS011;4792;50.088;8.122;2022-10-16T07:21:31;5.83;;;4.67;;
9508;SDS011;4792;50.088;8.122;2022-10-16T07:24:02;7.37;;;5.03;;
9508;SDS011;4792;50.088;8.122;2022-10-16T07:26:33;6.87;;;4.50;;
9508;SDS011;4792;50.088;8.122;2022-10-16T07:29:04;7.63;;;5.60;;
9508;SDS011;4792;50.088;8.122;2022-10-16T07:31:32;6.47;;;5.60;;
9508;SDS011;4792;50.088;8.122;2022-10-16T07:34:00;10.03;;;6.27;;
9508;SDS011;4792;50.088;8.122;2022-10-16T07:36:28;5.40;;;4.90;;
9508;SDS011;4792;50.088;8.122;2022-10-16T07:38:57;8.73;;;7.50;;
9508;SDS011;4792;50.088;8.122;2022-10-16T07:41:26;10.07;;;9.00;;
9508;SDS011;4792;50.088;8.122;2022-10-16T07:43:55;7.47;;;6.33;;
9508;SDS011;4792;50.088;8.122;2022-10-16T07:46:28;5.43;;;4.93;;
9508;SDS011;4792;50.088;8.122;2022-10-16T07:48:56;4.70;;;4.30;;
9508;SDS011;4792;50.088;8.122;2022-10-16T07:51:24;6.93;;;6.20;;
9508;SDS011;4792;50.088;8.122;2022-10-16T07:53:53;6.67;;;4.60;;
9508;SDS011;4792;50.088;8.122;2022-10-16T07:56:22;5.83;;;3.83;;
9508;SDS011;4792;50.088;8.122;2022-10-16T07:58:50;4.40;;;4.00;;
9508;SDS011;4792;50.088;8.122;2022-10-16T08:01:18;6.93;;;4.27;;
9508;SDS011;4792;50.088;8.122;2022-10-16T08:03:49;4.47;;;3.43;;
9508;SDS011;4792;50.088;8.122;2022-10-16T08:06:18;4.47;;;3.67;;
9508;SDS011;4792;50.088;8.122;2022-10-16T08:08:53;3.30;;;3.00;;
9508;SDS011;4792;50.088;8.122;2022-10-16T08:11:21;3.67;;;3.37;;
9508;SDS011;4792;50.088;8.122;2022-10-16T08:13:50;3.10;;;2.90;;
9508;SDS011;4792;50.088;8.122;2022-10-16T08:16:18;4.07;;;3.67;;
9508;SDS011;4792;50.088;8.122;2022-10-16T08:18:46;4.03;;;3.37;;
9508;SDS011;4792;50.088;8.122;2022-10-16T08:21:19;4.17;;;3.43;;
9508;SDS011;4792;50.088;8.122;2022-10-16T08:23:50;4.80;;;3.70;;
9508;SDS011;4792;50.088;8.122;2022-10-16T08:26:23;5.33;;;4.53;;
9508;SDS011;4792;50.088;8.122;2022-10-16T08:28:53;6.60;;;4.07;;
9508;SDS011;4792;50.088;8.122;2022-10-16T08:31:22;5.57;;;4.03;;
9508;SDS011;4792;50.088;8.122;2022-10-16T08:33:51;3.97;;;3.67;;
9508;SDS011;4792;50.088;8.122;2022-10-16T08:36:20;5.23;;;4.20;;
9508;SDS011;4792;50.088;8.122;2022-10-16T08:38:48;6.20;;;4.77;;
9508;SDS011;4792;50.088;8.122;2022-10-16T08:41:36;4.83;;;4.37;;
9508;SDS011;4792;50.088;8.122;2022-10-16T08:44:27;8.13;;;5.50;;
9508;SDS011;4792;50.088;8.122;2022-10-16T08:47:06;5.50;;;4.50;;
9508;SDS011;4792;50.088;8.122;2022-10-16T08:49:42;3.70;;;3.40;;
9508;SDS011;4792;50.088;8.122;2022-10-16T08:52:17;6.67;;;6.07;;
9508;SDS011;4792;50.088;8.122;2022-10-16T08:54:46;4.43;;;4.03;;
9508;SDS011;4792;50.088;8.122;2022-10-16T08:57:19;4.03;;;3.67;;
9508;SDS011;4792;50.088;8.122;2022-10-16T08:59:50;6.77;;;3.87;;
9508;SDS011;4792;50.088;8.122;2022-10-16T09:02:24;3.80;;;3.50;;
9508;SDS011;4792;50.088;8.122;2022-10-16T09:07:50;4.47;;;4.07;;
9508;SDS011;4792;50.088;8.122;2022-10-16T09:10:35;3.60;;;3.30;;
9508;SDS011;4792;50.088;8.122;2022-10-16T09:13:14;3.67;;;3.37;;
9508;SDS011;4792;50.088;8.122;2022-10-16T09:15:51;4.80;;;3.53;;
9508;SDS011;4792;50.088;8.122;2022-10-16T09:18:27;3.87;;;3.50;;
9508;SDS011;4792;50.088;8.122;2022-10-16T09:21:04;9.00;;;8.10;;
9508;SDS011;4792;50.088;8.122;2022-10-16T09:23:37;5.40;;;4.90;;
9508;SDS011;4792;50.088;8.122;2022-10-16T09:26:08;4.03;;;3.60;;
9508;SDS011;4792;50.088;8.122;2022-10-16T09:28:39;3.50;;;3.20;;
9508;SDS011;4792;50.088;8.122;2022-10-16T09:31:10;3.73;;;3.43;;
9508;SDS011;4792;50.088;8.122;2022-10-16T09:33:42;4.73;;;4.30;;
9508;SDS011;4792;50.088;8.122;2022-10-16T09:36:15;4.73;;;4.33;;
9508;SDS011;4792;50.088;8.122;2022-10-16T09:38:45;3.20;;;2.90;;
9508;SDS011;4792;50.088;8.122;2022-10-16T09:41:19;3.87;;;2.97;;
9508;SDS011;4792;50.088;8.122;2022-10-16T09:43:52;3.70;;;3.40;;
9508;SDS011;4792;50.088;8.122;2022-10-16T09:46:27;3.90;;;3.60;;
9508;SDS011;4792;50.088;8.122;2022-10-16T09:48:57;5.60;;;4.13;;
9508;SDS011;4792;50.088;8.122;2022-10-16T09:51:28;6.37;;;4.37;;
9508;SDS011;4792;50.088;8.122;2022-10-16T09:53:58;4.93;;;3.73;;
9508;SDS011;4792;50.088;8.122;2022-10-16T09:56:28;3.93;;;3.63;;
9508;SDS011;4792;50.088;8.122;2022-10-16T09:58:59;4.57;;;4.17;;
9508;SDS011;4792;50.088;8.122;2022-10-16T10:01:32;5.23;;;4.20;;
9508;SDS011;4792;50.088;8.122;2022-10-16T10:04:04;6.27;;;3.60;;
9508;SDS011;4792;50.088;8.122;2022-10-16T10:06:36;3.93;;;3.53;;
9508;SDS011;4792;50.088;8.122;2022-10-16T10:09:20;6.27;;;3.50;;
9508;SDS011;4792;50.088;8.122;2022-10-16T10:11:51;4.97;;;3.27;;
9508;SDS011;4792;50.088;8.122;2022-10-16T10:14:22;4.07;;;3.40;;
9508;SDS011;4792;50.088;8.122;2022-10-16T10:17:07;3.47;;;3.00;;
9508;SDS011;4792;50.088;8.122;2022-10-16T10:19:40;3.70;;;2.87;;
9508;SDS011;4792;50.088;8.122;2022-10-16T10:22:24;4.87;;;3.40;;
9508;SDS011;4792;50.088;8.122;2022-10-16T10:27:56;3.67;;;3.37;;
9508;SDS011;4792;50.088;8.122;2022-10-16T10:30:39;3.97;;;3.23;;
9508;SDS011;4792;50.088;8.122;2022-10-16T10:33:17;2.83;;;2.60;;
9508;SDS011;4792;50.088;8.122;2022-10-16T10:35:52;3.33;;;2.70;;
9508;SDS011;4792;50.088;8.122;2022-10-16T10:38:33;3.37;;;3.07;;
9508;SDS011;4792;50.088;8.122;2022-10-16T10:41:11;5.57;;;2.90;;
9508;SDS011;4792;50.088;8.122;2022-10-16T10:44:00;4.73;;;3.13;;
9508;SDS011;4792;50.088;8.122;2022-10-16T10:46:34;3.43;;;2.90;;
9508;SDS011;4792;50.088;8.122;2022-10-16T10:49:24;5.40;;;3.17;;
9508;SDS011;4792;50.088;8.122;2022-10-16T10:52:11;3.73;;;3.43;;
9508;SDS011;4792;50.088;8.122;2022-10-16T10:54:54;4.80;;;4.30;;
9508;SDS011;4792;50.088;8.122;2022-10-16T10:57:29;5.23;;;4.23;;
9508;SDS011;4792;50.088;8.122;2022-10-16T11:00:07;5.00;;;3.90;;
9508;SDS011;4792;50.088;8.122;2022-10-16T11:02:46;9.53;;;4.30;;
9508;SDS011;4792;50.088;8.122;2022-10-16T11:05:21;5.27;;;4.37;;
9508;SDS011;4792;50.088;8.122;2022-10-16T11:07:58;7.67;;;4.53;;
9508;SDS011;4792;50.088;8.122;2022-10-16T11:10:33;9.00;;;5.10;;
9508;SDS011;4792;50.088;8.122;2022-10-16T11:13:10;5.60;;;5.00;;
9508;SDS011;4792;50.088;8.122;2022-10-16T11:15:50;6.10;;;4.50;;
9508;SDS011;4792;50.088;8.122;2022-10-16T11:18:27;5.90;;;5.00;;
9508;SDS011;4792;50.088;8.122;2022-10-16T11:21:02;5.63;;;4.77;;
9508;SDS011;4792;50.088;8.122;2022-10-16T11:23:35;5.33;;;4.60;;
9508;SDS011;4792;50.088;8.122;2022-10-16T11:26:13;6.13;;;4.50;;
9508;SDS011;4792;50.088;8.122;2022-10-16T11:28:47;6.07;;;5.20;;
9508;SDS011;4792;50.088;8.122;2022-10-16T11:31:17;5.47;;;4.03;;
9508;SDS011;4792;50.088;8.122;2022-10-16T11:33:54;5.80;;;4.37;;
9508;SDS011;4792;50.088;8.122;2022-10-16T11:36:35;5.40;;;3.73;;
9508;SDS011;4792;50.088;8.122;2022-10-16T11:39:09;4.57;;;3.73;;
9508;SDS011;4792;50.088;8.122;2022-10-16T11:41:49;4.60;;;3.67;;
9508;SDS011;4792;50.088;8.122;2022-10-16T11:44:35;4.17;;;3.70;;
9508;SDS011;4792;50.088;8.122;2022-10-16T11:47:12;2.97;;;2.77;;
9508;SDS011;4792;50.088;8.122;2022-10-16T11:50:17;4.00;;;3.60;;
9508;SDS011;4792;50.088;8.122;2022-10-16T11:52:51;4.00;;;3.60;;
9508;SDS011;4792;50.088;8.122;2022-10-16T11:55:28;4.87;;;3.13;;
9508;SDS011;4792;50.088;8.122;2022-10-16T11:58:03;4.60;;;3.10;;
9508;SDS011;4792;50.088;8.122;2022-10-16T12:00:36;3.50;;;2.93;;
9508;SDS011;4792;50.088;8.122;2022-10-16T12:03:11;3.30;;;3.00;;
9508;SDS011;4792;50.088;8.122;2022-10-16T12:05:57;5.27;;;3.50;;
9508;SDS011;4792;50.088;8.122;2022-10-16T12:08:39;4.03;;;3.03;;
9508;SDS011;4792;50.088;8.122;2022-10-16T12:11:19;3.87;;;2.83;;
9508;SDS011;4792;50.088;8.122;2022-10-16T12:14:03;10.33;;;3.70;;
9508;SDS011;4792;50.088;8.122;2022-10-16T12:16:52;3.10;;;2.80;;
9508;SDS011;4792;50.088;8.122;2022-10-16T12:19:22;5.37;;;2.80;;
9508;SDS011;4792;50.088;8.122;2022-10-16T12:21:54;3.57;;;3.27;;
9508;SDS011;4792;50.088;8.122;2022-10-16T12:24:32;5.50;;;3.43;;
9508;SDS011;4792;50.088;8.122;2022-10-16T12:27:02;4.90;;;3.67;;
9508;SDS011;4792;50.088;8.122;2022-10-16T12:29:35;4.30;;;3.53;;
9508;SDS011;4792;50.088;8.122;2022-10-16T12:32:05;8.47;;;3.80;;
9508;SDS011;4792;50.088;8.122;2022-10-16T12:35:17;4.33;;;3.20;;
9508;SDS011;4792;50.088;8.122;2022-10-16T12:37:47;3.77;;;3.37;;
9508;SDS011;4792;50.088;8.122;2022-10-16T12:40:23;4.37;;;3.57;;
9508;SDS011;4792;50.088;8.122;2022-10-16T12:42:55;4.40;;;4.00;;
9508;SDS011;4792;50.088;8.122;2022-10-16T12:45:28;5.23;;;3.50;;
9508;SDS011;4792;50.088;8.122;2022-10-16T12:47:58;3.30;;;2.70;;
9508;SDS011;4792;50.088;8.122;2022-10-16T12:50:30;3.67;;;2.40;;
9508;SDS011;4792;50.088;8.122;2022-10-16T12:53:02;2.83;;;2.47;;
9508;SDS011;4792;50.088;8.122;2022-10-16T12:55:46;4.60;;;2.13;;
9508;SDS011;4792;50.088;8.122;2022-10-16T12:58:27;2.83;;;2.53;;
9508;SDS011;4792;50.088;8.122;2022-10-16T13:01:20;4.87;;;2.40;;
9508;SDS011;4792;50.088;8.122;2022-10-16T13:04:00;3.10;;;2.43;;
9508;SDS011;4792;50.088;8.122;2022-10-16T13:06:48;3.90;;;2.10;;
9508;SDS011;4792;50.088;8.122;2022-10-16T13:09:32;3.70;;;2.33;;
9508;SDS011;4792;50.088;8.122;2022-10-16T13:12:13;3.00;;;2.43;;
9508;SDS011;4792;50.088;8.122;2022-10-16T13:17:52;2.63;;;2.40;;
9508;SDS011;4792;50.088;8.122;2022-10-16T13:20:29;3.83;;;2.63;;
9508;SDS011;4792;50.088;8.122;2022-10-16T13:23:04;2.83;;;2.20;;
9508;SDS011;4792;50.088;8.122;2022-10-16T13:25:44;2.45;;;2.00;;
9508;SDS011;4792;50.088;8.122;2022-10-16T13:28:27;3.03;;;2.08;;
9508;SDS011;4792;50.088;8.122;2022-10-16T13:30:58;2.50;;;1.60;;
9508;SDS011;4792;50.088;8.122;2022-10-16T13:33:31;2.35;;;1.92;;
9508;SDS011;4792;50.088;8.122;2022-10-16T13:36:01;4.53;;;1.70;;
9508;SDS011;4792;50.088;8.122;2022-10-16T13:38:31;3.50;;;2.30;;
9508;SDS011;4792;50.088;8.122;2022-10-16T13:41:01;2.73;;;1.73;;
9508;SDS011;4792;50.088;8.122;2022-10-16T13:43:31;2.63;;;2.20;;
9508;SDS011;4792;50.088;8.122;2022-10-16T13:46:02;2.30;;;2.10;;
9508;SDS011;4792;50.088;8.122;2022-10-16T13:48:34;1.70;;;1.60;;
9508;SDS011;4792;50.088;8.122;2022-10-16T13:51:06;1.97;;;1.77;;
9508;SDS011;4792;50.088;8.122;2022-10-16T13:53:39;3.13;;;1.83;;
9508;SDS011;4792;50.088;8.122;2022-10-16T13:56:10;1.80;;;1.70;;
9508;SDS011;4792;50.088;8.122;2022-10-16T13:58:39;4.00;;;3.23;;
9508;SDS011;4792;50.088;8.122;2022-10-16T14:01:15;2.17;;;1.90;;
9508;SDS011;4792;50.088;8.122;2022-10-16T14:03:47;2.60;;;2.00;;
9508;SDS011;4792;50.088;8.122;2022-10-16T14:06:17;3.00;;;2.20;;
9508;SDS011;4792;50.088;8.122;2022-10-16T14:08:48;1.93;;;1.80;;
9508;SDS011;4792;50.088;8.122;2022-10-16T14:11:20;2.33;;;2.00;;
9508;SDS011;4792;50.088;8.122;2022-10-16T14:13:50;3.10;;;2.17;;
9508;SDS011;4792;50.088;8.122;2022-10-16T14:16:20;3.07;;;2.10;;
9508;SDS011;4792;50.088;8.122;2022-10-16T14:18:53;4.03;;;1.90;;
9508;SDS011;4792;50.088;8.122;2022-10-16T14:21:24;4.60;;;1.80;;
9508;SDS011;4792;50.088;8.122;2022-10-16T14:23:53;2.87;;;2.60;;
9508;SDS011;4792;50.088;8.122;2022-10-16T14:26:22;4.37;;;2.20;;
9508;SDS011;4792;50.088;8.122;2022-10-16T14:29:03;3.57;;;2.33;;
9508;SDS011;4792;50.088;8.122;2022-10-16T14:31:38;3.70;;;2.30;;
9508;SDS011;4792;50.088;8.122;2022-10-16T14:36:53;0.30;;;0.30;;
9508;SDS011;4792;50.088;8.122;2022-10-16T14:39:22;3.13;;;1.83;;
9508;SDS011;4792;50.088;8.122;2022-10-16T14:41:54;3.67;;;2.10;;
9508;SDS011;4792;50.088;8.122;2022-10-16T14:44:26;3.77;;;2.40;;
9508;SDS011;4792;50.088;8.122;2022-10-16T14:46:57;0.40;;;0.40;;
9508;SDS011;4792;50.088;8.122;2022-10-16T14:49:28;0.83;;;0.83;;
9508;SDS011;4792;50.088;8.122;2022-10-16T14:51:58;3.17;;;2.60;;
9508;SDS011;4792;50.088;8.122;2022-10-16T14:54:26;2.07;;;1.87;;
9508;SDS011;4792;50.088;8.122;2022-10-16T14:56:56;7.53;;;2.77;;
9508;SDS011;4792;50.088;8.122;2022-10-16T14:59:27;4.40;;;2.27;;
9508;SDS011;4792;50.088;8.122;2022-10-16T15:01:59;2.20;;;2.00;;
9508;SDS011;4792;50.088;8.122;2022-10-16T15:04:35;6.50;;;2.10;;
9508;SDS011;4792;50.088;8.122;2022-10-16T15:07:03;3.30;;;2.27;;
9508;SDS011;4792;50.088;8.122;2022-10-16T15:09:31;2.90;;;2.60;;
9508;SDS011;4792;50.088;8.122;2022-10-16T15:11:59;3.33;;;2.40;;
9508;SDS011;4792;50.088;8.122;2022-10-16T15:14:27;3.00;;;2.77;;
9508;SDS011;4792;50.088;8.122;2022-10-16T15:16:56;5.50;;;2.90;;
9508;SDS011;4792;50.088;8.122;2022-10-16T15:19:24;2.70;;;2.50;;
9508;SDS011;4792;50.088;8.122;2022-10-16T15:21:54;4.10;;;2.47;;
9508;SDS011;4792;50.088;8.122;2022-10-16T15:24:22;2.63;;;2.43;;
9508;SDS011;4792;50.088;8.122;2022-10-16T15:26:50;4.50;;;2.93;;
9508;SDS011;4792;50.088;8.122;2022-10-16T15:29:18;6.20;;;3.10;;
9508;SDS011;4792;50.088;8.122;2022-10-16T15:31:46;3.60;;;2.73;;
9508;SDS011;4792;50.088;8.122;2022-10-16T15:34:15;3.77;;;3.37;;
9508;SDS011;4792;50.088;8.122;2022-10-16T15:36:45;3.90;;;3.50;;
9508;SDS011;4792;50.088;8.122;2022-10-16T15:39:15;3.73;;;3.00;;
9508;SDS011;4792;50.088;8.122;2022-10-16T15:41:44;3.33;;;2.83;;
9508;SDS011;4792;50.088;8.122;2022-10-16T15:44:16;3.77;;;3.37;;
9508;SDS011;4792;50.088;8.122;2022-10-16T15:46:45;3.93;;;3.30;;
9508;SDS011;4792;50.088;8.122;2022-10-16T15:49:13;3.17;;;2.83;;
9508;SDS011;4792;50.088;8.122;2022-10-16T15:51:41;6.50;;;3.10;;
9508;SDS011;4792;50.088;8.122;2022-10-16T15:54:09;6.03;;;2.90;;
9508;SDS011;4792;50.088;8.122;2022-10-16T15:56:39;4.23;;;3.07;;